sensor_id;sensor_type;location;lat;lon;timestamp;P1;durP1;ratioP1;P2;durP2;ratioP2
33794;SDS011;51430;52.242;21.118;2022-07-29T00:01:42;5.60;;;3.90;;
33794;SDS011;51430;52.242;21.118;2022-07-29T00:04:10;4.50;;;3.50;;
33794;SDS011;51430;52.242;21.118;2022-07-29T00:06:39;5.50;;;3.50;;
33794;SDS011;51430;52.242;21.118;2022-07-29T00:09:08;5.60;;;3.40;;
33794;SDS011;51430;52.242;21.118;2022-07-29T00:11:36;6.40;;;3.60;;
33794;SDS011;51430;52.242;21.118;2022-07-29T00:14:04;5.90;;;3.60;;
33794;SDS011;51430;52.242;21.118;2022-07-29T00:16:32;6.00;;;3.20;;
33794;SDS011;51430;52.242;21.118;2022-07-29T00:19:00;5.60;;;3.50;;
33794;SDS011;51430;52.242;21.118;2022-07-29T00:21:29;4.10;;;3.30;;
33794;SDS011;51430;52.242;21.118;2022-07-29T00:23:57;7.10;;;3.50;;
33794;SDS011;51430;52.242;21.118;2022-07-29T00:26:26;4.50;;;3.30;;
33794;SDS011;51430;52.242;21.118;2022-07-29T00:28:59;6.30;;;3.20;;
33794;SDS011;51430;52.242;21.118;2022-07-29T00:31:49;6.60;;;3.50;;
33794;SDS011;51430;52.242;21.118;2022-07-29T00:34:17;4.90;;;3.40;;
33794;SDS011;51430;52.242;21.118;2022-07-29T00:37:04;7.60;;;3.60;;
33794;SDS011;51430;52.242;21.118;2022-07-29T00:39:34;5.50;;;3.20;;
33794;SDS011;51430;52.242;21.118;2022-07-29T00:42:03;9.40;;;3.60;;
33794;SDS011;51430;52.242;21.118;2022-07-29T00:44:36;5.00;;;3.20;;
33794;SDS011;51430;52.242;21.118;2022-07-29T00:47:09;5.70;;;2.90;;
33794;SDS011;51430;52.242;21.118;2022-07-29T00:49:39;6.30;;;3.00;;
33794;SDS011;51430;52.242;21.118;2022-07-29T00:52:33;4.70;;;3.10;;
33794;SDS011;51430;52.242;21.118;2022-07-29T00:55:04;6.60;;;2.90;;
33794;SDS011;51430;52.242;21.118;2022-07-29T00:57:36;5.20;;;3.40;;
33794;SDS011;51430;52.242;21.118;2022-07-29T01:00:06;6.00;;;3.20;;
33794;SDS011;51430;52.242;21.118;2022-07-29T01:02:36;5.00;;;3.30;;
33794;SDS011;51430;52.242;21.118;2022-07-29T01:05:05;3.70;;;3.20;;
33794;SDS011;51430;52.242;21.118;2022-07-29T01:07:34;7.00;;;2.60;;
33794;SDS011;51430;52.242;21.118;2022-07-29T01:10:04;5.30;;;3.10;;
33794;SDS011;51430;52.242;21.118;2022-07-29T01:12:36;6.60;;;3.10;;
33794;SDS011;51430;52.242;21.118;2022-07-29T01:15:06;5.20;;;3.20;;
33794;SDS011;51430;52.242;21.118;2022-07-29T01:20:23;7.20;;;2.90;;
33794;SDS011;51430;52.242;21.118;2022-07-29T01:23:08;4.70;;;3.00;;
33794;SDS011;51430;52.242;21.118;2022-07-29T01:31:20;6.20;;;2.80;;
33794;SDS011;51430;52.242;21.118;2022-07-29T01:33:58;4.20;;;3.20;;
33794;SDS011;51430;52.242;21.118;2022-07-29T01:36:36;4.90;;;3.20;;
33794;SDS011;51430;52.242;21.118;2022-07-29T01:39:12;5.10;;;2.90;;
33794;SDS011;51430;52.242;21.118;2022-07-29T01:41:50;6.40;;;3.10;;
33794;SDS011;51430;52.242;21.118;2022-07-29T01:44:42;4.70;;;3.50;;
33794;SDS011;51430;52.242;21.118;2022-07-29T01:47:19;3.70;;;2.50;;
33794;SDS011;51430;52.242;21.118;2022-07-29T01:49:51;4.90;;;3.00;;
33794;SDS011;51430;52.242;21.118;2022-07-29T01:52:38;6.30;;;3.40;;
33794;SDS011;51430;52.242;21.118;2022-07-29T01:55:16;5.80;;;3.40;;
33794;SDS011;51430;52.242;21.118;2022-07-29T01:57:48;5.20;;;3.00;;
33794;SDS011;51430;52.242;21.118;2022-07-29T02:00:17;4.30;;;2.90;;
33794;SDS011;51430;52.242;21.118;2022-07-29T02:02:46;6.40;;;2.90;;
33794;SDS011;51430;52.242;21.118;2022-07-29T02:05:18;4.30;;;2.90;;
33794;SDS011;51430;52.242;21.118;2022-07-29T02:07:49;5.60;;;3.20;;
33794;SDS011;51430;52.242;21.118;2022-07-29T02:10:21;4.40;;;3.20;;
33794;SDS011;51430;52.242;21.118;2022-07-29T02:12:52;6.80;;;3.10;;
33794;SDS011;51430;52.242;21.118;2022-07-29T02:15:24;5.70;;;2.90;;
33794;SDS011;51430;52.242;21.118;2022-07-29T02:17:58;8.00;;;3.50;;
33794;SDS011;51430;52.242;21.118;2022-07-29T02:20:30;5.10;;;3.00;;
33794;SDS011;51430;52.242;21.118;2022-07-29T02:22:59;4.20;;;3.10;;
33794;SDS011;51430;52.242;21.118;2022-07-29T02:25:29;6.40;;;3.20;;
33794;SDS011;51430;52.242;21.118;2022-07-29T02:28:05;4.50;;;2.70;;
33794;SDS011;51430;52.242;21.118;2022-07-29T02:30:39;5.90;;;3.30;;
33794;SDS011;51430;52.242;21.118;2022-07-29T02:33:10;6.00;;;3.30;;
33794;SDS011;51430;52.242;21.118;2022-07-29T02:35:41;4.40;;;3.20;;
33794;SDS011;51430;52.242;21.118;2022-07-29T02:38:13;6.20;;;3.50;;
33794;SDS011;51430;52.242;21.118;2022-07-29T02:41:03;6.90;;;3.40;;
33794;SDS011;51430;52.242;21.118;2022-07-29T02:43:39;4.80;;;3.40;;
33794;SDS011;51430;52.242;21.118;2022-07-29T02:46:11;4.90;;;3.10;;
33794;SDS011;51430;52.242;21.118;2022-07-29T02:51:41;4.00;;;3.10;;
33794;SDS011;51430;52.242;21.118;2022-07-29T02:54:22;4.50;;;3.10;;
33794;SDS011;51430;52.242;21.118;2022-07-29T02:56:54;6.30;;;3.40;;
33794;SDS011;51430;52.242;21.118;2022-07-29T02:59:26;4.00;;;3.00;;
33794;SDS011;51430;52.242;21.118;2022-07-29T03:01:55;7.00;;;3.10;;
33794;SDS011;51430;52.242;21.118;2022-07-29T03:04:27;6.50;;;3.50;;
33794;SDS011;51430;52.242;21.118;2022-07-29T03:06:57;6.40;;;3.40;;
33794;SDS011;51430;52.242;21.118;2022-07-29T03:09:27;6.60;;;3.40;;
33794;SDS011;51430;52.242;21.118;2022-07-29T03:11:57;5.80;;;3.00;;
33794;SDS011;51430;52.242;21.118;2022-07-29T03:14:27;4.50;;;3.20;;
33794;SDS011;51430;52.242;21.118;2022-07-29T03:16:58;3.40;;;2.70;;
33794;SDS011;51430;52.242;21.118;2022-07-29T03:19:26;3.70;;;3.20;;
33794;SDS011;51430;52.242;21.118;2022-07-29T03:21:57;7.70;;;3.20;;
33794;SDS011;51430;52.242;21.118;2022-07-29T03:24:27;7.70;;;3.60;;
33794;SDS011;51430;52.242;21.118;2022-07-29T03:26:57;3.30;;;3.00;;
33794;SDS011;51430;52.242;21.118;2022-07-29T03:29:25;4.50;;;3.00;;
33794;SDS011;51430;52.242;21.118;2022-07-29T03:32:02;5.60;;;3.40;;
33794;SDS011;51430;52.242;21.118;2022-07-29T03:34:35;4.90;;;3.30;;
33794;SDS011;51430;52.242;21.118;2022-07-29T03:37:06;4.70;;;3.30;;
33794;SDS011;51430;52.242;21.118;2022-07-29T03:39:36;6.10;;;3.10;;
33794;SDS011;51430;52.242;21.118;2022-07-29T03:42:10;3.70;;;2.90;;
33794;SDS011;51430;52.242;21.118;2022-07-29T03:44:41;5.30;;;3.10;;
33794;SDS011;51430;52.242;21.118;2022-07-29T03:47:13;3.70;;;2.90;;
33794;SDS011;51430;52.242;21.118;2022-07-29T03:49:42;8.20;;;2.70;;
33794;SDS011;51430;52.242;21.118;2022-07-29T03:52:16;5.90;;;3.00;;
33794;SDS011;51430;52.242;21.118;2022-07-29T03:54:45;4.70;;;3.40;;
33794;SDS011;51430;52.242;21.118;2022-07-29T03:57:15;7.20;;;3.20;;
33794;SDS011;51430;52.242;21.118;2022-07-29T03:59:44;3.50;;;2.70;;
33794;SDS011;51430;52.242;21.118;2022-07-29T04:02:13;3.30;;;2.60;;
33794;SDS011;51430;52.242;21.118;2022-07-29T04:04:48;3.10;;;2.80;;
33794;SDS011;51430;52.242;21.118;2022-07-29T04:07:16;4.70;;;3.50;;
33794;SDS011;51430;52.242;21.118;2022-07-29T04:09:44;3.70;;;3.10;;
33794;SDS011;51430;52.242;21.118;2022-07-29T04:12:13;5.60;;;3.20;;
33794;SDS011;51430;52.242;21.118;2022-07-29T04:14:40;4.60;;;3.30;;
33794;SDS011;51430;52.242;21.118;2022-07-29T04:17:09;8.00;;;3.50;;
33794;SDS011;51430;52.242;21.118;2022-07-29T04:19:37;4.00;;;3.00;;
33794;SDS011;51430;52.242;21.118;2022-07-29T04:22:05;5.10;;;3.00;;
33794;SDS011;51430;52.242;21.118;2022-07-29T04:24:33;4.50;;;2.90;;
33794;SDS011;51430;52.242;21.118;2022-07-29T04:27:02;5.70;;;2.70;;
33794;SDS011;51430;52.242;21.118;2022-07-29T04:29:30;4.30;;;2.70;;
33794;SDS011;51430;52.242;21.118;2022-07-29T04:31:58;6.00;;;2.40;;
33794;SDS011;51430;52.242;21.118;2022-07-29T04:34:26;3.80;;;3.10;;
33794;SDS011;51430;52.242;21.118;2022-07-29T04:36:55;3.00;;;2.50;;
33794;SDS011;51430;52.242;21.118;2022-07-29T04:39:23;3.70;;;2.40;;
33794;SDS011;51430;52.242;21.118;2022-07-29T04:41:55;3.30;;;2.30;;
33794;SDS011;51430;52.242;21.118;2022-07-29T04:44:25;4.20;;;2.10;;
33794;SDS011;51430;52.242;21.118;2022-07-29T04:46:56;5.10;;;2.40;;
33794;SDS011;51430;52.242;21.118;2022-07-29T04:49:24;4.70;;;2.40;;
33794;SDS011;51430;52.242;21.118;2022-07-29T04:51:54;4.60;;;2.40;;
33794;SDS011;51430;52.242;21.118;2022-07-29T04:54:21;3.80;;;2.00;;
33794;SDS011;51430;52.242;21.118;2022-07-29T04:56:51;4.40;;;2.10;;
33794;SDS011;51430;52.242;21.118;2022-07-29T04:59:19;4.60;;;2.10;;
33794;SDS011;51430;52.242;21.118;2022-07-29T05:01:47;4.10;;;2.00;;
33794;SDS011;51430;52.242;21.118;2022-07-29T05:04:15;6.10;;;2.20;;
33794;SDS011;51430;52.242;21.118;2022-07-29T05:06:44;2.00;;;1.80;;
33794;SDS011;51430;52.242;21.118;2022-07-29T05:09:12;3.80;;;1.80;;
33794;SDS011;51430;52.242;21.118;2022-07-29T05:11:40;5.60;;;2.20;;
33794;SDS011;51430;52.242;21.118;2022-07-29T05:14:08;1.80;;;1.50;;
33794;SDS011;51430;52.242;21.118;2022-07-29T05:16:36;3.50;;;1.70;;
33794;SDS011;51430;52.242;21.118;2022-07-29T05:19:04;2.00;;;1.50;;
33794;SDS011;51430;52.242;21.118;2022-07-29T05:21:39;5.50;;;1.70;;
33794;SDS011;51430;52.242;21.118;2022-07-29T05:24:06;3.20;;;1.40;;
33794;SDS011;51430;52.242;21.118;2022-07-29T05:26:35;4.80;;;1.50;;
33794;SDS011;51430;52.242;21.118;2022-07-29T05:29:05;3.90;;;1.80;;
33794;SDS011;51430;52.242;21.118;2022-07-29T05:31:53;3.30;;;1.50;;
33794;SDS011;51430;52.242;21.118;2022-07-29T05:34:21;2.90;;;1.50;;
33794;SDS011;51430;52.242;21.118;2022-07-29T05:36:49;2.50;;;1.70;;
33794;SDS011;51430;52.242;21.118;2022-07-29T05:39:17;5.00;;;1.40;;
33794;SDS011;51430;52.242;21.118;2022-07-29T05:41:45;3.10;;;1.50;;
33794;SDS011;51430;52.242;21.118;2022-07-29T05:44:18;3.30;;;1.40;;
33794;SDS011;51430;52.242;21.118;2022-07-29T05:46:51;3.30;;;1.40;;
33794;SDS011;51430;52.242;21.118;2022-07-29T05:49:19;5.60;;;1.30;;
33794;SDS011;51430;52.242;21.118;2022-07-29T05:51:53;2.20;;;1.10;;
33794;SDS011;51430;52.242;21.118;2022-07-29T05:54:21;1.50;;;1.20;;
33794;SDS011;51430;52.242;21.118;2022-07-29T05:56:49;3.40;;;1.20;;
33794;SDS011;51430;52.242;21.118;2022-07-29T05:59:17;3.10;;;1.20;;
33794;SDS011;51430;52.242;21.118;2022-07-29T06:01:45;1.80;;;1.00;;
33794;SDS011;51430;52.242;21.118;2022-07-29T06:04:13;2.40;;;1.20;;
33794;SDS011;51430;52.242;21.118;2022-07-29T06:06:42;4.30;;;1.10;;
33794;SDS011;51430;52.242;21.118;2022-07-29T06:09:10;5.60;;;1.30;;
33794;SDS011;51430;52.242;21.118;2022-07-29T06:11:40;1.00;;;0.70;;
33794;SDS011;51430;52.242;21.118;2022-07-29T06:14:09;2.10;;;0.90;;
33794;SDS011;51430;52.242;21.118;2022-07-29T06:16:37;1.40;;;1.10;;
33794;SDS011;51430;52.242;21.118;2022-07-29T06:19:05;4.20;;;0.90;;
33794;SDS011;51430;52.242;21.118;2022-07-29T06:21:33;1.10;;;0.90;;
33794;SDS011;51430;52.242;21.118;2022-07-29T06:24:05;0.80;;;0.80;;
33794;SDS011;51430;52.242;21.118;2022-07-29T06:26:34;1.70;;;0.90;;
33794;SDS011;51430;52.242;21.118;2022-07-29T06:29:06;1.90;;;0.80;;
33794;SDS011;51430;52.242;21.118;2022-07-29T06:31:59;3.60;;;1.10;;
33794;SDS011;51430;52.242;21.118;2022-07-29T06:34:29;2.10;;;1.00;;
33794;SDS011;51430;52.242;21.118;2022-07-29T06:36:57;1.40;;;0.80;;
33794;SDS011;51430;52.242;21.118;2022-07-29T06:39:26;3.40;;;0.80;;
33794;SDS011;51430;52.242;21.118;2022-07-29T06:41:53;1.50;;;0.80;;
33794;SDS011;51430;52.242;21.118;2022-07-29T06:44:21;1.20;;;0.80;;
33794;SDS011;51430;52.242;21.118;2022-07-29T06:46:49;2.50;;;0.50;;
33794;SDS011;51430;52.242;21.118;2022-07-29T06:49:19;1.50;;;0.80;;
33794;SDS011;51430;52.242;21.118;2022-07-29T06:52:10;1.60;;;0.60;;
33794;SDS011;51430;52.242;21.118;2022-07-29T06:54:38;1.00;;;0.70;;
33794;SDS011;51430;52.242;21.118;2022-07-29T06:57:07;4.40;;;1.20;;
33794;SDS011;51430;52.242;21.118;2022-07-29T06:59:35;2.10;;;0.60;;
33794;SDS011;51430;52.242;21.118;2022-07-29T07:02:03;1.50;;;0.50;;
33794;SDS011;51430;52.242;21.118;2022-07-29T07:04:31;4.40;;;0.80;;
33794;SDS011;51430;52.242;21.118;2022-07-29T07:06:59;1.60;;;0.80;;
33794;SDS011;51430;52.242;21.118;2022-07-29T07:09:28;1.20;;;0.70;;
33794;SDS011;51430;52.242;21.118;2022-07-29T07:12:07;1.30;;;0.50;;
33794;SDS011;51430;52.242;21.118;2022-07-29T07:14:35;2.40;;;0.60;;
33794;SDS011;51430;52.242;21.118;2022-07-29T07:17:03;2.90;;;0.70;;
33794;SDS011;51430;52.242;21.118;2022-07-29T07:19:32;4.80;;;0.70;;
33794;SDS011;51430;52.242;21.118;2022-07-29T07:21:59;2.00;;;0.60;;
33794;SDS011;51430;52.242;21.118;2022-07-29T07:24:27;1.90;;;0.60;;
33794;SDS011;51430;52.242;21.118;2022-07-29T07:26:56;2.80;;;0.90;;
33794;SDS011;51430;52.242;21.118;2022-07-29T07:29:24;3.10;;;0.80;;
33794;SDS011;51430;52.242;21.118;2022-07-29T07:31:52;2.10;;;0.90;;
33794;SDS011;51430;52.242;21.118;2022-07-29T07:34:27;0.90;;;0.70;;
33794;SDS011;51430;52.242;21.118;2022-07-29T07:36:56;3.10;;;0.90;;
33794;SDS011;51430;52.242;21.118;2022-07-29T07:39:24;2.40;;;0.80;;
33794;SDS011;51430;52.242;21.118;2022-07-29T07:41:53;3.00;;;0.80;;
33794;SDS011;51430;52.242;21.118;2022-07-29T07:44:21;2.20;;;0.80;;
33794;SDS011;51430;52.242;21.118;2022-07-29T07:46:50;3.80;;;0.80;;
33794;SDS011;51430;52.242;21.118;2022-07-29T07:49:19;1.40;;;0.80;;
33794;SDS011;51430;52.242;21.118;2022-07-29T07:51:47;1.20;;;0.50;;
33794;SDS011;51430;52.242;21.118;2022-07-29T07:54:17;4.30;;;1.10;;
33794;SDS011;51430;52.242;21.118;2022-07-29T07:56:47;2.90;;;1.00;;
33794;SDS011;51430;52.242;21.118;2022-07-29T07:59:20;2.70;;;0.80;;
33794;SDS011;51430;52.242;21.118;2022-07-29T08:01:48;1.30;;;0.80;;
33794;SDS011;51430;52.242;21.118;2022-07-29T08:04:23;1.10;;;0.40;;
33794;SDS011;51430;52.242;21.118;2022-07-29T08:06:55;3.00;;;0.90;;
33794;SDS011;51430;52.242;21.118;2022-07-29T08:09:25;2.90;;;0.90;;
33794;SDS011;51430;52.242;21.118;2022-07-29T08:11:57;2.90;;;0.90;;
33794;SDS011;51430;52.242;21.118;2022-07-29T08:14:26;2.40;;;0.70;;
33794;SDS011;51430;52.242;21.118;2022-07-29T08:16:54;1.90;;;0.70;;
33794;SDS011;51430;52.242;21.118;2022-07-29T08:19:23;3.00;;;0.90;;
33794;SDS011;51430;52.242;21.118;2022-07-29T08:21:51;1.30;;;0.60;;
33794;SDS011;51430;52.242;21.118;2022-07-29T08:24:21;3.70;;;0.80;;
33794;SDS011;51430;52.242;21.118;2022-07-29T08:27:09;3.60;;;1.10;;
33794;SDS011;51430;52.242;21.118;2022-07-29T08:29:58;5.30;;;1.40;;
33794;SDS011;51430;52.242;21.118;2022-07-29T08:32:26;28.70;;;12.60;;
33794;SDS011;51430;52.242;21.118;2022-07-29T08:35:15;6.90;;;3.10;;
33794;SDS011;51430;52.242;21.118;2022-07-29T08:37:43;3.60;;;1.80;;
33794;SDS011;51430;52.242;21.118;2022-07-29T08:40:11;3.50;;;0.80;;
33794;SDS011;51430;52.242;21.118;2022-07-29T08:42:40;5.50;;;1.30;;
33794;SDS011;51430;52.242;21.118;2022-07-29T08:45:08;4.80;;;1.70;;
33794;SDS011;51430;52.242;21.118;2022-07-29T08:47:38;3.40;;;0.80;;
33794;SDS011;51430;52.242;21.118;2022-07-29T08:50:09;3.30;;;1.00;;
33794;SDS011;51430;52.242;21.118;2022-07-29T08:52:39;1.40;;;0.80;;
33794;SDS011;51430;52.242;21.118;2022-07-29T08:55:08;1.90;;;1.20;;
33794;SDS011;51430;52.242;21.118;2022-07-29T08:57:38;5.50;;;0.70;;
33794;SDS011;51430;52.242;21.118;2022-07-29T09:00:21;1.40;;;1.00;;
33794;SDS011;51430;52.242;21.118;2022-07-29T09:02:54;1.40;;;0.80;;
33794;SDS011;51430;52.242;21.118;2022-07-29T09:05:25;1.50;;;0.80;;
33794;SDS011;51430;52.242;21.118;2022-07-29T09:07:53;2.60;;;0.80;;
33794;SDS011;51430;52.242;21.118;2022-07-29T09:10:22;1.40;;;0.70;;
33794;SDS011;51430;52.242;21.118;2022-07-29T09:12:51;0.60;;;0.60;;
33794;SDS011;51430;52.242;21.118;2022-07-29T09:15:20;1.50;;;0.90;;
33794;SDS011;51430;52.242;21.118;2022-07-29T09:17:48;3.30;;;1.00;;
33794;SDS011;51430;52.242;21.118;2022-07-29T09:20:18;1.50;;;0.60;;
33794;SDS011;51430;52.242;21.118;2022-07-29T09:22:52;4.00;;;0.80;;
33794;SDS011;51430;52.242;21.118;2022-07-29T09:25:36;2.10;;;1.20;;
33794;SDS011;51430;52.242;21.118;2022-07-29T09:28:15;2.50;;;0.90;;
33794;SDS011;51430;52.242;21.118;2022-07-29T09:33:21;3.60;;;1.00;;
33794;SDS011;51430;52.242;21.118;2022-07-29T09:36:06;1.00;;;0.80;;
33794;SDS011;51430;52.242;21.118;2022-07-29T09:38:37;2.50;;;1.00;;
33794;SDS011;51430;52.242;21.118;2022-07-29T09:41:05;2.40;;;1.20;;
33794;SDS011;51430;52.242;21.118;2022-07-29T09:43:36;2.00;;;1.00;;
33794;SDS011;51430;52.242;21.118;2022-07-29T09:46:10;1.90;;;0.90;;
33794;SDS011;51430;52.242;21.118;2022-07-29T09:48:40;2.90;;;0.80;;
33794;SDS011;51430;52.242;21.118;2022-07-29T09:51:20;2.90;;;0.90;;
33794;SDS011;51430;52.242;21.118;2022-07-29T09:53:56;0.90;;;0.70;;
33794;SDS011;51430;52.242;21.118;2022-07-29T09:56:40;3.40;;;0.70;;
33794;SDS011;51430;52.242;21.118;2022-07-29T09:59:10;3.50;;;1.10;;
33794;SDS011;51430;52.242;21.118;2022-07-29T10:01:39;2.60;;;1.00;;
33794;SDS011;51430;52.242;21.118;2022-07-29T10:04:07;1.90;;;0.80;;
33794;SDS011;51430;52.242;21.118;2022-07-29T10:06:36;3.30;;;1.00;;
33794;SDS011;51430;52.242;21.118;2022-07-29T10:09:31;1.30;;;0.70;;
33794;SDS011;51430;52.242;21.118;2022-07-29T10:12:08;3.20;;;0.60;;
33794;SDS011;51430;52.242;21.118;2022-07-29T10:14:41;2.10;;;0.70;;
33794;SDS011;51430;52.242;21.118;2022-07-29T10:17:10;2.30;;;0.70;;
33794;SDS011;51430;52.242;21.118;2022-07-29T10:19:38;1.60;;;0.80;;
33794;SDS011;51430;52.242;21.118;2022-07-29T10:22:10;2.80;;;0.90;;
33794;SDS011;51430;52.242;21.118;2022-07-29T10:24:39;1.20;;;0.80;;
33794;SDS011;51430;52.242;21.118;2022-07-29T10:27:08;3.10;;;1.10;;
33794;SDS011;51430;52.242;21.118;2022-07-29T10:29:36;1.00;;;0.60;;
33794;SDS011;51430;52.242;21.118;2022-07-29T10:38:21;3.60;;;0.80;;
33794;SDS011;51430;52.242;21.118;2022-07-29T10:46:36;1.50;;;0.70;;
33794;SDS011;51430;52.242;21.118;2022-07-29T10:49:17;4.60;;;4.20;;
33794;SDS011;51430;52.242;21.118;2022-07-29T11:05:11;2.00;;;0.70;;
33794;SDS011;51430;52.242;21.118;2022-07-29T11:10:47;2.70;;;0.80;;
33794;SDS011;51430;52.242;21.118;2022-07-29T11:14:03;1.00;;;0.50;;
33794;SDS011;51430;52.242;21.118;2022-07-29T11:16:14;1.80;;;0.70;;
33794;SDS011;51430;52.242;21.118;2022-07-29T11:19:29;2.20;;;0.60;;
33794;SDS011;51430;52.242;21.118;2022-07-29T11:21:41;2.10;;;0.60;;
33794;SDS011;51430;52.242;21.118;2022-07-29T11:24:28;2.50;;;0.60;;
33794;SDS011;51430;52.242;21.118;2022-07-29T11:27:23;1.20;;;0.60;;
33794;SDS011;51430;52.242;21.118;2022-07-29T11:30:07;4.30;;;0.80;;
33794;SDS011;51430;52.242;21.118;2022-07-29T11:32:40;1.90;;;0.70;;
33794;SDS011;51430;52.242;21.118;2022-07-29T11:35:30;2.30;;;0.80;;
33794;SDS011;51430;52.242;21.118;2022-07-29T11:44:06;2.40;;;0.80;;
33794;SDS011;51430;52.242;21.118;2022-07-29T11:49:23;3.70;;;0.80;;
33794;SDS011;51430;52.242;21.118;2022-07-29T11:52:14;2.60;;;0.80;;
33794;SDS011;51430;52.242;21.118;2022-07-29T11:54:43;1.80;;;0.80;;
33794;SDS011;51430;52.242;21.118;2022-07-29T11:57:25;4.10;;;0.70;;
33794;SDS011;51430;52.242;21.118;2022-07-29T12:00:05;4.60;;;1.20;;
33794;SDS011;51430;52.242;21.118;2022-07-29T12:02:41;1.20;;;0.70;;
33794;SDS011;51430;52.242;21.118;2022-07-29T12:05:15;1.30;;;0.50;;
33794;SDS011;51430;52.242;21.118;2022-07-29T12:08:08;2.20;;;0.80;;
33794;SDS011;51430;52.242;21.118;2022-07-29T12:10:45;2.20;;;0.70;;
33794;SDS011;51430;52.242;21.118;2022-07-29T12:13:18;2.00;;;0.90;;
33794;SDS011;51430;52.242;21.118;2022-07-29T12:15:55;3.10;;;0.90;;
33794;SDS011;51430;52.242;21.118;2022-07-29T12:18:26;3.10;;;0.90;;
33794;SDS011;51430;52.242;21.118;2022-07-29T12:21:00;2.50;;;0.70;;
33794;SDS011;51430;52.242;21.118;2022-07-29T12:23:32;4.50;;;0.80;;
33794;SDS011;51430;52.242;21.118;2022-07-29T12:26:05;3.00;;;1.00;;
33794;SDS011;51430;52.242;21.118;2022-07-29T12:28:48;1.70;;;0.40;;
33794;SDS011;51430;52.242;21.118;2022-07-29T12:31:17;1.50;;;0.60;;
33794;SDS011;51430;52.242;21.118;2022-07-29T12:34:05;2.40;;;0.70;;
33794;SDS011;51430;52.242;21.118;2022-07-29T12:36:33;1.50;;;1.00;;
33794;SDS011;51430;52.242;21.118;2022-07-29T12:39:01;1.20;;;0.60;;
33794;SDS011;51430;52.242;21.118;2022-07-29T12:41:30;1.10;;;0.60;;
33794;SDS011;51430;52.242;21.118;2022-07-29T12:43:58;2.10;;;0.90;;
33794;SDS011;51430;52.242;21.118;2022-07-29T12:46:26;1.50;;;0.70;;
33794;SDS011;51430;52.242;21.118;2022-07-29T12:48:54;3.00;;;0.70;;
33794;SDS011;51430;52.242;21.118;2022-07-29T12:51:39;3.10;;;0.60;;
33794;SDS011;51430;52.242;21.118;2022-07-29T12:54:09;4.60;;;1.00;;
33794;SDS011;51430;52.242;21.118;2022-07-29T12:56:43;3.70;;;0.80;;
33794;SDS011;51430;52.242;21.118;2022-07-29T12:59:13;1.20;;;0.60;;
33794;SDS011;51430;52.242;21.118;2022-07-29T13:01:41;3.40;;;0.90;;
33794;SDS011;51430;52.242;21.118;2022-07-29T13:04:10;1.60;;;0.70;;
33794;SDS011;51430;52.242;21.118;2022-07-29T13:06:39;2.90;;;0.60;;
33794;SDS011;51430;52.242;21.118;2022-07-29T13:09:18;1.90;;;0.80;;
33794;SDS011;51430;52.242;21.118;2022-07-29T13:11:51;1.70;;;0.70;;
33794;SDS011;51430;52.242;21.118;2022-07-29T13:14:34;5.10;;;1.10;;
33794;SDS011;51430;52.242;21.118;2022-07-29T13:22:12;1.40;;;0.60;;
33794;SDS011;51430;52.242;21.118;2022-07-29T13:24:53;4.00;;;0.90;;
33794;SDS011;51430;52.242;21.118;2022-07-29T13:27:27;2.80;;;0.80;;
33794;SDS011;51430;52.242;21.118;2022-07-29T13:29:56;1.10;;;0.50;;
33794;SDS011;51430;52.242;21.118;2022-07-29T13:32:27;1.60;;;0.70;;
33794;SDS011;51430;52.242;21.118;2022-07-29T13:34:58;3.90;;;0.80;;
33794;SDS011;51430;52.242;21.118;2022-07-29T13:37:32;3.00;;;0.70;;
33794;SDS011;51430;52.242;21.118;2022-07-29T13:40:07;2.40;;;0.70;;
33794;SDS011;51430;52.242;21.118;2022-07-29T13:42:36;1.20;;;0.70;;
33794;SDS011;51430;52.242;21.118;2022-07-29T13:45:05;1.50;;;0.90;;
33794;SDS011;51430;52.242;21.118;2022-07-29T13:47:34;2.40;;;0.90;;
33794;SDS011;51430;52.242;21.118;2022-07-29T13:50:03;1.70;;;0.40;;
33794;SDS011;51430;52.242;21.118;2022-07-29T13:52:33;5.90;;;0.70;;
33794;SDS011;51430;52.242;21.118;2022-07-29T13:55:02;1.60;;;0.80;;
33794;SDS011;51430;52.242;21.118;2022-07-29T13:57:31;2.00;;;0.70;;
33794;SDS011;51430;52.242;21.118;2022-07-29T13:59:59;3.40;;;0.90;;
33794;SDS011;51430;52.242;21.118;2022-07-29T14:02:27;0.50;;;0.40;;
33794;SDS011;51430;52.242;21.118;2022-07-29T14:04:55;0.80;;;0.60;;
33794;SDS011;51430;52.242;21.118;2022-07-29T14:07:23;4.10;;;0.80;;
33794;SDS011;51430;52.242;21.118;2022-07-29T14:09:51;3.70;;;0.80;;
33794;SDS011;51430;52.242;21.118;2022-07-29T14:12:19;3.40;;;0.90;;
33794;SDS011;51430;52.242;21.118;2022-07-29T14:14:47;1.70;;;0.70;;
33794;SDS011;51430;52.242;21.118;2022-07-29T14:17:15;2.20;;;0.90;;
33794;SDS011;51430;52.242;21.118;2022-07-29T14:19:43;1.60;;;0.70;;
33794;SDS011;51430;52.242;21.118;2022-07-29T14:22:11;1.00;;;0.50;;
33794;SDS011;51430;52.242;21.118;2022-07-29T14:24:39;1.90;;;0.60;;
33794;SDS011;51430;52.242;21.118;2022-07-29T14:27:10;3.40;;;0.80;;
33794;SDS011;51430;52.242;21.118;2022-07-29T14:29:39;1.00;;;0.60;;
33794;SDS011;51430;52.242;21.118;2022-07-29T14:32:07;2.70;;;0.70;;
33794;SDS011;51430;52.242;21.118;2022-07-29T14:34:38;0.80;;;0.70;;
33794;SDS011;51430;52.242;21.118;2022-07-29T14:37:07;1.50;;;0.60;;
33794;SDS011;51430;52.242;21.118;2022-07-29T14:39:42;4.60;;;0.70;;
33794;SDS011;51430;52.242;21.118;2022-07-29T14:42:10;1.40;;;0.70;;
33794;SDS011;51430;52.242;21.118;2022-07-29T14:45:07;1.30;;;0.50;;
33794;SDS011;51430;52.242;21.118;2022-07-29T14:47:40;1.40;;;0.80;;
33794;SDS011;51430;52.242;21.118;2022-07-29T14:50:08;3.10;;;0.80;;
33794;SDS011;51430;52.242;21.118;2022-07-29T14:52:37;4.60;;;0.70;;
33794;SDS011;51430;52.242;21.118;2022-07-29T14:55:05;0.90;;;0.80;;
33794;SDS011;51430;52.242;21.118;2022-07-29T14:57:47;0.70;;;0.60;;
33794;SDS011;51430;52.242;21.118;2022-07-29T15:00:16;2.50;;;0.80;;
33794;SDS011;51430;52.242;21.118;2022-07-29T15:02:46;2.70;;;1.30;;
33794;SDS011;51430;52.242;21.118;2022-07-29T15:05:30;1.90;;;0.60;;
33794;SDS011;51430;52.242;21.118;2022-07-29T15:07:59;1.00;;;0.80;;
33794;SDS011;51430;52.242;21.118;2022-07-29T15:10:27;0.70;;;0.50;;
33794;SDS011;51430;52.242;21.118;2022-07-29T15:12:56;1.50;;;0.80;;
33794;SDS011;51430;52.242;21.118;2022-07-29T15:15:24;1.70;;;0.70;;
33794;SDS011;51430;52.242;21.118;2022-07-29T15:17:54;1.40;;;0.40;;
33794;SDS011;51430;52.242;21.118;2022-07-29T15:20:22;1.70;;;0.80;;
33794;SDS011;51430;52.242;21.118;2022-07-29T15:23:17;3.10;;;0.80;;
33794;SDS011;51430;52.242;21.118;2022-07-29T15:25:45;3.00;;;0.80;;
33794;SDS011;51430;52.242;21.118;2022-07-29T15:28:37;2.20;;;0.80;;
33794;SDS011;51430;52.242;21.118;2022-07-29T15:31:05;1.40;;;0.70;;
33794;SDS011;51430;52.242;21.118;2022-07-29T15:33:33;1.50;;;0.70;;
33794;SDS011;51430;52.242;21.118;2022-07-29T15:36:01;2.00;;;0.60;;
33794;SDS011;51430;52.242;21.118;2022-07-29T15:38:29;1.60;;;0.80;;
33794;SDS011;51430;52.242;21.118;2022-07-29T15:40:57;1.50;;;0.60;;
33794;SDS011;51430;52.242;21.118;2022-07-29T15:43:25;1.50;;;0.60;;
33794;SDS011;51430;52.242;21.118;2022-07-29T15:45:53;2.00;;;0.80;;
33794;SDS011;51430;52.242;21.118;2022-07-29T15:48:39;2.00;;;0.70;;
33794;SDS011;51430;52.242;21.118;2022-07-29T15:51:07;2.60;;;0.80;;
33794;SDS011;51430;52.242;21.118;2022-07-29T15:54:02;1.80;;;1.00;;
33794;SDS011;51430;52.242;21.118;2022-07-29T15:56:32;1.00;;;0.60;;
33794;SDS011;51430;52.242;21.118;2022-07-29T15:59:00;1.90;;;0.70;;